Sheridan, Indiana
Current Conditions -  °F | °C
As of 9:55 AM on Friday 24 Oct 2014 (Local Time) from KTYQ Reporting Station
Light Rain Light Rain  
Wind Chill: 46°   Ceiling: 8500
Heat Index: 48°   Visibility: 7mi
Dew Point: 43°   Wind: 5mph
Humidity: 84%   Direction: 160°SSE
Pressure: 30.11"   Gusts: NA
Location:  40.14°N, 86.22°W
Report Text: KTYQ 241355Z AUTO 16004KT 7SM -RA SCT034 OVC085 09/06 A3011 RMK AO2 T00880062
Loading
Personal Weather Stations






























Interactive Weather Map
Tropical Storm Tracking
New forecast layout! Learn more

10-Day Weather Forecast

Advertisements
Track Severe Weather on mobile